Moody, AL (35004)

10:44 AM CDT on August 31, 2015 (GMT -0500)
APRSWXNET | | Change Station
CLOSE
Current Station
Personal Weather Station
Location: Moody, AL
Elevation: 695 ft
Nearby Weather Stations

Elev 695 ft 33.59 °N, 86.49 °W | Updated 24 minutes ago

Overcast
Overcast
72 °F
Feels Like 72 °F
N
0
Wind Variable Wind from NNE
Gusts 2.0 mph

Today
High -- | Low -- °F
--% Chance of Precip.
Yesterday
High -- | Low -- °F
Precip. -- in
6:19 AM 7:13 PM
Waning Gibbous, 95% visible
Pressure 30.16 in
Visibility 10.0 miles
Clouds Few 800 ft
Mostly Cloudy 1400 ft
Overcast 2600 ft
Dew Point 70 °F
Humidity 92%
Rainfall in
Snow Depth Not available.
UV 2 out of 12
Pollen 8.40 out of 12
Air Quality Not available.
Flu Activity Not available.
METAR KBHM 311514Z 00000KT 10SM FEW008 BKN014 OVC026 23/21 A3016 RMK AO2 T02330206
Pressure 30.16 in
Visibility 10.0 miles
Clouds Few 800 ft
Mostly Cloudy 1400 ft
Overcast 2600 ft
Dew Point 70 °F
Humidity 92%
Rainfall in
Snow Depth Not available.
UV 2 out of 12
Pollen 8.40 out of 12
Air Quality Not available.
Flu Activity Not available.
METAR KBHM 311514Z 00000KT 10SM FEW008 BKN014 OVC026 23/21 A3016 RMK AO2 T02330206

10-Day Weather Forecast

×

Almanac

Astronomy

Aug. 31, 2015 Rise Set
Actual Time
Civil Twilight
Nautical Twilight
Astronomical Twilight
Moon
Length of Visible Light
Length of Day
Tomorrow will be .
, % of the Moon is Illuminated

Today's Extremes

State Highs State Lows

Community

WunderPhotos

Upload Photos

1,851,282 photos uploaded!

WunderBlogs® & News

Nearby

Air Quality

  Air Quality AQ Index Pollutant
Not available.

Snow Depth

Station Depth Elevation

Earthquake Activity

City Distance Mag. Time & Date
Minimum magnitude displayed is 2.5.

Coastal Water Temperatures

Place Temperature

Stations

Nearby Weather Stations

Station Location Temp. Windchill Dew Point Humidity Wind Precip. Elev Updated Type